sensor_id;sensor_type;location;lat;lon;timestamp;pressure;altitude;pressure_sealevel;temperature
71081;BMP180;58740;50.672;18.690;2023-05-10T00:01:34;99206.00;;;10.00
71081;BMP180;58740;50.672;18.690;2023-05-10T00:04:03;99202.60;;;9.90
71081;BMP180;58740;50.672;18.690;2023-05-10T00:06:31;99203.40;;;9.90
71081;BMP180;58740;50.672;18.690;2023-05-10T00:08:59;99201.40;;;9.90
71081;BMP180;58740;50.672;18.690;2023-05-10T00:11:26;99196.20;;;9.90
71081;BMP180;58740;50.672;18.690;2023-05-10T00:13:55;99194.20;;;9.80
71081;BMP180;58740;50.672;18.690;2023-05-10T00:16:22;99197.00;;;9.80
71081;BMP180;58740;50.672;18.690;2023-05-10T00:18:50;99191.20;;;9.80
71081;BMP180;58740;50.672;18.690;2023-05-10T00:21:18;99196.00;;;9.80
71081;BMP180;58740;50.672;18.690;2023-05-10T00:23:46;99195.80;;;9.80
71081;BMP180;58740;50.672;18.690;2023-05-10T00:26:13;99192.80;;;9.72
71081;BMP180;58740;50.672;18.690;2023-05-10T00:28:41;99195.60;;;9.70
71081;BMP180;58740;50.672;18.690;2023-05-10T00:31:09;99193.00;;;9.70
71081;BMP180;58740;50.672;18.690;2023-05-10T00:33:37;99189.00;;;9.70
71081;BMP180;58740;50.672;18.690;2023-05-10T00:36:05;99188.40;;;9.60
71081;BMP180;58740;50.672;18.690;2023-05-10T00:38:34;99186.60;;;9.60
71081;BMP180;58740;50.672;18.690;2023-05-10T00:41:02;99182.80;;;9.60
71081;BMP180;58740;50.672;18.690;2023-05-10T00:43:30;99182.00;;;9.60
71081;BMP180;58740;50.672;18.690;2023-05-10T00:45:58;99186.40;;;9.56
71081;BMP180;58740;50.672;18.690;2023-05-10T00:48:29;99184.00;;;9.50
71081;BMP180;58740;50.672;18.690;2023-05-10T00:50:57;99180.60;;;9.50
71081;BMP180;58740;50.672;18.690;2023-05-10T00:53:24;99178.20;;;9.50
71081;BMP180;58740;50.672;18.690;2023-05-10T00:55:53;99173.80;;;9.50
71081;BMP180;58740;50.672;18.690;2023-05-10T00:58:20;99176.00;;;9.50
71081;BMP180;58740;50.672;18.690;2023-05-10T01:00:50;99174.40;;;9.52
71081;BMP180;58740;50.672;18.690;2023-05-10T01:03:18;99173.00;;;9.50
71081;BMP180;58740;50.672;18.690;2023-05-10T01:05:47;99169.80;;;9.52
71081;BMP180;58740;50.672;18.690;2023-05-10T01:08:14;99171.00;;;9.50
71081;BMP180;58740;50.672;18.690;2023-05-10T01:10:43;99173.60;;;9.50
71081;BMP180;58740;50.672;18.690;2023-05-10T01:13:12;99170.60;;;9.50
71081;BMP180;58740;50.672;18.690;2023-05-10T01:15:41;99169.60;;;9.50
71081;BMP180;58740;50.672;18.690;2023-05-10T01:18:09;99169.20;;;9.40
71081;BMP180;58740;50.672;18.690;2023-05-10T01:20:48;99166.20;;;9.40
71081;BMP180;58740;50.672;18.690;2023-05-10T01:35:50;99163.40;;;9.40
71081;BMP180;58740;50.672;18.690;2023-05-10T01:38:45;99158.80;;;9.40
71081;BMP180;58740;50.672;18.690;2023-05-10T01:41:28;99159.80;;;9.40
71081;BMP180;58740;50.672;18.690;2023-05-10T01:44:38;99160.80;;;9.30
71081;BMP180;58740;50.672;18.690;2023-05-10T01:47:20;99159.60;;;9.30
71081;BMP180;58740;50.672;18.690;2023-05-10T01:49:55;99157.00;;;9.30
71081;BMP180;58740;50.672;18.690;2023-05-10T01:52:32;99156.20;;;9.30
71081;BMP180;58740;50.672;18.690;2023-05-10T01:55:05;99152.60;;;9.30
71081;BMP180;58740;50.672;18.690;2023-05-10T01:57:37;99156.00;;;9.30
71081;BMP180;58740;50.672;18.690;2023-05-10T02:00:08;99153.00;;;9.30
71081;BMP180;58740;50.672;18.690;2023-05-10T02:02:40;99156.60;;;9.30
71081;BMP180;58740;50.672;18.690;2023-05-10T02:05:13;99154.60;;;9.26
71081;BMP180;58740;50.672;18.690;2023-05-10T02:07:43;99149.60;;;9.26
71081;BMP180;58740;50.672;18.690;2023-05-10T02:10:13;99153.00;;;9.20
71081;BMP180;58740;50.672;18.690;2023-05-10T02:12:46;99150.60;;;9.20
71081;BMP180;58740;50.672;18.690;2023-05-10T02:15:22;99149.80;;;9.20
71081;BMP180;58740;50.672;18.690;2023-05-10T02:17:52;99146.40;;;9.20
71081;BMP180;58740;50.672;18.690;2023-05-10T02:20:24;99145.80;;;9.12
71081;BMP180;58740;50.672;18.690;2023-05-10T02:22:55;99143.20;;;9.10
71081;BMP180;58740;50.672;18.690;2023-05-10T02:25:25;99142.20;;;9.08
71081;BMP180;58740;50.672;18.690;2023-05-10T02:27:56;99141.80;;;9.00
71081;BMP180;58740;50.672;18.690;2023-05-10T02:30:26;99135.60;;;9.00
71081;BMP180;58740;50.672;18.690;2023-05-10T02:32:54;99138.60;;;8.90
71081;BMP180;58740;50.672;18.690;2023-05-10T02:35:26;99138.20;;;8.90
71081;BMP180;58740;50.672;18.690;2023-05-10T02:37:54;99133.60;;;8.90
71081;BMP180;58740;50.672;18.690;2023-05-10T02:40:25;99136.20;;;8.90
71081;BMP180;58740;50.672;18.690;2023-05-10T02:42:56;99133.60;;;8.80
71081;BMP180;58740;50.672;18.690;2023-05-10T02:45:29;99136.40;;;8.80
71081;BMP180;58740;50.672;18.690;2023-05-10T02:47:58;99130.60;;;8.80
71081;BMP180;58740;50.672;18.690;2023-05-10T02:50:30;99139.60;;;8.80
71081;BMP180;58740;50.672;18.690;2023-05-10T02:53:09;99137.40;;;8.74
71081;BMP180;58740;50.672;18.690;2023-05-10T02:55:41;99138.00;;;8.70
71081;BMP180;58740;50.672;18.690;2023-05-10T02:58:10;99135.40;;;8.70
71081;BMP180;58740;50.672;18.690;2023-05-10T03:00:38;99134.20;;;8.70
71081;BMP180;58740;50.672;18.690;2023-05-10T03:03:06;99141.40;;;8.66
71081;BMP180;58740;50.672;18.690;2023-05-10T03:05:34;99136.00;;;8.60
71081;BMP180;58740;50.672;18.690;2023-05-10T03:08:02;99135.00;;;8.58
71081;BMP180;58740;50.672;18.690;2023-05-10T03:10:34;99137.20;;;8.50
71081;BMP180;58740;50.672;18.690;2023-05-10T03:13:29;99137.60;;;8.50
71081;BMP180;58740;50.672;18.690;2023-05-10T03:16:09;99139.60;;;8.42
71081;BMP180;58740;50.672;18.690;2023-05-10T03:18:51;99140.20;;;8.40
71081;BMP180;58740;50.672;18.690;2023-05-10T03:21:25;99141.80;;;8.34
71081;BMP180;58740;50.672;18.690;2023-05-10T03:24:11;99137.00;;;8.30
71081;BMP180;58740;50.672;18.690;2023-05-10T03:26:43;99139.00;;;8.26
71081;BMP180;58740;50.672;18.690;2023-05-10T03:29:13;99139.00;;;8.20
71081;BMP180;58740;50.672;18.690;2023-05-10T03:31:42;99136.20;;;8.30
71081;BMP180;58740;50.672;18.690;2023-05-10T03:34:10;99138.80;;;8.30
71081;BMP180;58740;50.672;18.690;2023-05-10T03:36:38;99133.20;;;8.30
71081;BMP180;58740;50.672;18.690;2023-05-10T03:39:06;99134.20;;;8.22
71081;BMP180;58740;50.672;18.690;2023-05-10T03:41:34;99132.00;;;8.20
71081;BMP180;58740;50.672;18.690;2023-05-10T03:44:02;99128.60;;;8.18
71081;BMP180;58740;50.672;18.690;2023-05-10T03:46:29;99131.20;;;8.20
71081;BMP180;58740;50.672;18.690;2023-05-10T03:48:57;99129.60;;;8.20
71081;BMP180;58740;50.672;18.690;2023-05-10T03:51:25;99131.20;;;8.20
71081;BMP180;58740;50.672;18.690;2023-05-10T03:53:55;99128.40;;;8.18
71081;BMP180;58740;50.672;18.690;2023-05-10T03:56:23;99127.80;;;8.20
71081;BMP180;58740;50.672;18.690;2023-05-10T03:58:50;99127.20;;;8.20
71081;BMP180;58740;50.672;18.690;2023-05-10T04:01:18;99121.80;;;8.20
71081;BMP180;58740;50.672;18.690;2023-05-10T04:03:46;99129.00;;;8.20
71081;BMP180;58740;50.672;18.690;2023-05-10T04:06:14;99130.00;;;8.26
71081;BMP180;58740;50.672;18.690;2023-05-10T04:08:42;99130.40;;;8.30
71081;BMP180;58740;50.672;18.690;2023-05-10T04:11:11;99130.20;;;8.30
71081;BMP180;58740;50.672;18.690;2023-05-10T04:13:40;99131.00;;;8.30
71081;BMP180;58740;50.672;18.690;2023-05-10T04:16:08;99130.00;;;8.30
71081;BMP180;58740;50.672;18.690;2023-05-10T04:18:36;99124.40;;;8.30
71081;BMP180;58740;50.672;18.690;2023-05-10T04:21:04;99131.60;;;8.40
71081;BMP180;58740;50.672;18.690;2023-05-10T04:23:32;99129.20;;;8.40
71081;BMP180;58740;50.672;18.690;2023-05-10T04:26:01;99132.80;;;8.46
71081;BMP180;58740;50.672;18.690;2023-05-10T04:28:29;99133.80;;;8.50
71081;BMP180;58740;50.672;18.690;2023-05-10T04:31:05;99129.00;;;8.50
71081;BMP180;58740;50.672;18.690;2023-05-10T04:33:33;99127.60;;;8.50
71081;BMP180;58740;50.672;18.690;2023-05-10T04:36:03;99124.60;;;8.52
71081;BMP180;58740;50.672;18.690;2023-05-10T04:38:31;99127.60;;;8.60
71081;BMP180;58740;50.672;18.690;2023-05-10T04:43:34;99129.00;;;8.80
71081;BMP180;58740;50.672;18.690;2023-05-10T04:46:04;99127.20;;;8.90
71081;BMP180;58740;50.672;18.690;2023-05-10T04:48:32;99127.60;;;8.90
71081;BMP180;58740;50.672;18.690;2023-05-10T04:51:00;99123.80;;;9.00
71081;BMP180;58740;50.672;18.690;2023-05-10T04:53:28;99126.20;;;9.10
71081;BMP180;58740;50.672;18.690;2023-05-10T04:55:56;99121.80;;;9.10
71081;BMP180;58740;50.672;18.690;2023-05-10T04:58:23;99126.40;;;9.10
71081;BMP180;58740;50.672;18.690;2023-05-10T05:00:51;99127.60;;;9.20
71081;BMP180;58740;50.672;18.690;2023-05-10T05:03:19;99123.80;;;9.26
71081;BMP180;58740;50.672;18.690;2023-05-10T05:05:47;99118.00;;;9.30
71081;BMP180;58740;50.672;18.690;2023-05-10T05:08:15;99121.80;;;9.40
71081;BMP180;58740;50.672;18.690;2023-05-10T05:10:43;99119.80;;;9.50
71081;BMP180;58740;50.672;18.690;2023-05-10T05:13:12;99116.20;;;9.60
71081;BMP180;58740;50.672;18.690;2023-05-10T05:15:40;99113.40;;;9.68
71081;BMP180;58740;50.672;18.690;2023-05-10T05:18:08;99116.60;;;9.78
71081;BMP180;58740;50.672;18.690;2023-05-10T05:20:36;99115.40;;;9.82
71081;BMP180;58740;50.672;18.690;2023-05-10T05:23:03;99113.00;;;10.00
71081;BMP180;58740;50.672;18.690;2023-05-10T05:25:31;99107.20;;;10.10
71081;BMP180;58740;50.672;18.690;2023-05-10T05:27:59;99114.00;;;10.20
71081;BMP180;58740;50.672;18.690;2023-05-10T05:30:27;99113.00;;;10.30
71081;BMP180;58740;50.672;18.690;2023-05-10T05:32:55;99111.40;;;10.40
71081;BMP180;58740;50.672;18.690;2023-05-10T05:35:23;99113.20;;;10.52
71081;BMP180;58740;50.672;18.690;2023-05-10T05:37:51;99110.40;;;10.70
71081;BMP180;58740;50.672;18.690;2023-05-10T05:40:19;99110.40;;;10.80
71081;BMP180;58740;50.672;18.690;2023-05-10T05:42:47;99110.80;;;10.90
71081;BMP180;58740;50.672;18.690;2023-05-10T05:45:15;99113.60;;;11.04
71081;BMP180;58740;50.672;18.690;2023-05-10T05:47:43;99112.20;;;11.20
71081;BMP180;58740;50.672;18.690;2023-05-10T05:50:11;99109.40;;;11.30
71081;BMP180;58740;50.672;18.690;2023-05-10T05:52:39;99107.20;;;11.44
71081;BMP180;58740;50.672;18.690;2023-05-10T05:55:07;99104.40;;;11.60
71081;BMP180;58740;50.672;18.690;2023-05-10T05:57:35;99103.60;;;11.76
71081;BMP180;58740;50.672;18.690;2023-05-10T06:00:03;99107.40;;;11.90
71081;BMP180;58740;50.672;18.690;2023-05-10T06:02:31;99105.40;;;12.00
71081;BMP180;58740;50.672;18.690;2023-05-10T06:04:59;99110.20;;;12.20
71081;BMP180;58740;50.672;18.690;2023-05-10T06:07:27;99112.20;;;12.30
71081;BMP180;58740;50.672;18.690;2023-05-10T06:09:54;99107.80;;;12.50
71081;BMP180;58740;50.672;18.690;2023-05-10T06:12:22;99108.60;;;12.60
71081;BMP180;58740;50.672;18.690;2023-05-10T06:14:50;99106.80;;;12.80
71081;BMP180;58740;50.672;18.690;2023-05-10T06:17:17;99103.60;;;12.90
71081;BMP180;58740;50.672;18.690;2023-05-10T06:19:45;99099.60;;;13.00
71081;BMP180;58740;50.672;18.690;2023-05-10T06:22:13;99091.60;;;13.10
71081;BMP180;58740;50.672;18.690;2023-05-10T06:24:41;99093.60;;;13.20
71081;BMP180;58740;50.672;18.690;2023-05-10T06:27:08;99094.00;;;13.38
71081;BMP180;58740;50.672;18.690;2023-05-10T06:29:36;99095.00;;;13.50
71081;BMP180;58740;50.672;18.690;2023-05-10T06:32:04;99089.00;;;13.60
71081;BMP180;58740;50.672;18.690;2023-05-10T06:34:32;99098.40;;;13.76
71081;BMP180;58740;50.672;18.690;2023-05-10T06:36:59;99095.80;;;13.90
71081;BMP180;58740;50.672;18.690;2023-05-10T06:39:27;99098.60;;;14.02
71081;BMP180;58740;50.672;18.690;2023-05-10T06:41:56;99090.80;;;14.12
71081;BMP180;58740;50.672;18.690;2023-05-10T06:44:24;99086.60;;;14.20
71081;BMP180;58740;50.672;18.690;2023-05-10T06:46:52;99088.20;;;14.30
71081;BMP180;58740;50.672;18.690;2023-05-10T06:49:21;99089.40;;;14.40
71081;BMP180;58740;50.672;18.690;2023-05-10T06:51:49;99091.40;;;14.50
71081;BMP180;58740;50.672;18.690;2023-05-10T06:54:17;99093.60;;;14.60
71081;BMP180;58740;50.672;18.690;2023-05-10T06:56:45;99085.60;;;14.70
71081;BMP180;58740;50.672;18.690;2023-05-10T06:59:12;99084.60;;;14.80
71081;BMP180;58740;50.672;18.690;2023-05-10T07:01:41;99083.00;;;14.80
71081;BMP180;58740;50.672;18.690;2023-05-10T07:04:08;99088.60;;;14.94
71081;BMP180;58740;50.672;18.690;2023-05-10T07:06:36;99076.80;;;15.02
71081;BMP180;58740;50.672;18.690;2023-05-10T07:09:04;99077.20;;;15.10
71081;BMP180;58740;50.672;18.690;2023-05-10T07:11:32;99077.40;;;15.20
71081;BMP180;58740;50.672;18.690;2023-05-10T07:13:59;99072.20;;;15.30
71081;BMP180;58740;50.672;18.690;2023-05-10T07:16:27;99068.00;;;15.30
71081;BMP180;58740;50.672;18.690;2023-05-10T07:18:56;99068.20;;;15.40
71081;BMP180;58740;50.672;18.690;2023-05-10T07:21:24;99070.40;;;15.50
71081;BMP180;58740;50.672;18.690;2023-05-10T07:23:51;99061.00;;;15.50
71081;BMP180;58740;50.672;18.690;2023-05-10T07:26:19;99070.40;;;15.60
71081;BMP180;58740;50.672;18.690;2023-05-10T07:28:48;99063.00;;;15.70
71081;BMP180;58740;50.672;18.690;2023-05-10T07:31:15;99065.40;;;15.80
71081;BMP180;58740;50.672;18.690;2023-05-10T07:33:43;99054.60;;;15.90
71081;BMP180;58740;50.672;18.690;2023-05-10T07:36:11;99054.80;;;15.90
71081;BMP180;58740;50.672;18.690;2023-05-10T07:38:39;99048.20;;;15.94
71081;BMP180;58740;50.672;18.690;2023-05-10T07:41:07;99048.20;;;16.00
71081;BMP180;58740;50.672;18.690;2023-05-10T07:43:35;99051.20;;;16.00
71081;BMP180;58740;50.672;18.690;2023-05-10T07:46:03;99051.00;;;16.08
71081;BMP180;58740;50.672;18.690;2023-05-10T07:48:30;99048.40;;;16.10
71081;BMP180;58740;50.672;18.690;2023-05-10T07:50:59;99046.80;;;16.20
71081;BMP180;58740;50.672;18.690;2023-05-10T07:53:26;99042.40;;;16.28
71081;BMP180;58740;50.672;18.690;2023-05-10T07:55:58;99041.60;;;16.30
71081;BMP180;58740;50.672;18.690;2023-05-10T07:58:26;99040.20;;;16.40
71081;BMP180;58740;50.672;18.690;2023-05-10T08:00:54;99047.00;;;16.48
71081;BMP180;58740;50.672;18.690;2023-05-10T08:03:22;99043.60;;;16.50
71081;BMP180;58740;50.672;18.690;2023-05-10T08:05:50;99045.00;;;16.60
71081;BMP180;58740;50.672;18.690;2023-05-10T08:08:17;99046.40;;;16.76
71081;BMP180;58740;50.672;18.690;2023-05-10T08:10:45;99031.20;;;16.80
71081;BMP180;58740;50.672;18.690;2023-05-10T08:13:13;99036.00;;;16.88
71081;BMP180;58740;50.672;18.690;2023-05-10T08:15:40;99033.60;;;16.90
71081;BMP180;58740;50.672;18.690;2023-05-10T08:18:08;99036.80;;;16.90
71081;BMP180;58740;50.672;18.690;2023-05-10T08:20:36;99031.20;;;17.00
71081;BMP180;58740;50.672;18.690;2023-05-10T08:23:04;99033.60;;;17.10
71081;BMP180;58740;50.672;18.690;2023-05-10T08:25:31;99041.00;;;17.20
71081;BMP180;58740;50.672;18.690;2023-05-10T08:28:00;99034.60;;;17.30
71081;BMP180;58740;50.672;18.690;2023-05-10T08:30:27;99037.00;;;17.20
71081;BMP180;58740;50.672;18.690;2023-05-10T08:32:55;99026.00;;;17.10
71081;BMP180;58740;50.672;18.690;2023-05-10T08:35:23;99023.80;;;17.10
71081;BMP180;58740;50.672;18.690;2023-05-10T08:37:52;99027.60;;;17.10
71081;BMP180;58740;50.672;18.690;2023-05-10T08:40:19;99028.80;;;17.20
71081;BMP180;58740;50.672;18.690;2023-05-10T08:43:05;99033.20;;;17.30
71081;BMP180;58740;50.672;18.690;2023-05-10T08:45:39;99032.40;;;17.40
71081;BMP180;58740;50.672;18.690;2023-05-10T08:48:10;99034.00;;;17.40
71081;BMP180;58740;50.672;18.690;2023-05-10T08:50:40;99031.60;;;17.40
71081;BMP180;58740;50.672;18.690;2023-05-10T08:53:13;99035.20;;;17.40
71081;BMP180;58740;50.672;18.690;2023-05-10T08:55:41;99033.80;;;17.40
71081;BMP180;58740;50.672;18.690;2023-05-10T08:58:10;99034.80;;;17.50
71081;BMP180;58740;50.672;18.690;2023-05-10T09:00:38;99031.80;;;17.50
71081;BMP180;58740;50.672;18.690;2023-05-10T09:03:05;99040.20;;;17.44
71081;BMP180;58740;50.672;18.690;2023-05-10T09:05:36;99030.80;;;17.40
71081;BMP180;58740;50.672;18.690;2023-05-10T09:08:04;99034.40;;;17.40
71081;BMP180;58740;50.672;18.690;2023-05-10T09:10:33;99035.60;;;17.50
71081;BMP180;58740;50.672;18.690;2023-05-10T09:13:02;99024.80;;;17.30
71081;BMP180;58740;50.672;18.690;2023-05-10T09:15:30;99028.40;;;17.38
71081;BMP180;58740;50.672;18.690;2023-05-10T09:17:58;99032.60;;;17.40
71081;BMP180;58740;50.672;18.690;2023-05-10T09:20:29;99033.80;;;17.50
71081;BMP180;58740;50.672;18.690;2023-05-10T09:22:58;99032.40;;;17.60
71081;BMP180;58740;50.672;18.690;2023-05-10T09:25:26;99028.00;;;17.60
71081;BMP180;58740;50.672;18.690;2023-05-10T09:27:54;99034.40;;;17.62
71081;BMP180;58740;50.672;18.690;2023-05-10T09:30:28;99033.40;;;17.70
71081;BMP180;58740;50.672;18.690;2023-05-10T09:32:58;99036.60;;;17.74
71081;BMP180;58740;50.672;18.690;2023-05-10T09:35:30;99030.60;;;17.70
71081;BMP180;58740;50.672;18.690;2023-05-10T09:38:04;99035.80;;;17.78
71081;BMP180;58740;50.672;18.690;2023-05-10T09:40:32;99022.60;;;17.88
71081;BMP180;58740;50.672;18.690;2023-05-10T09:43:04;99026.20;;;17.90
71081;BMP180;58740;50.672;18.690;2023-05-10T09:45:35;99027.40;;;17.92
71081;BMP180;58740;50.672;18.690;2023-05-10T09:48:05;99031.20;;;18.00
71081;BMP180;58740;50.672;18.690;2023-05-10T09:50:34;99037.20;;;18.16
71081;BMP180;58740;50.672;18.690;2023-05-10T09:53:03;99025.00;;;18.20
71081;BMP180;58740;50.672;18.690;2023-05-10T09:55:43;99026.40;;;18.22
71081;BMP180;58740;50.672;18.690;2023-05-10T09:58:16;99034.00;;;18.30
71081;BMP180;58740;50.672;18.690;2023-05-10T10:00:46;99025.60;;;18.40
71081;BMP180;58740;50.672;18.690;2023-05-10T10:03:20;99025.40;;;18.42
71081;BMP180;58740;50.672;18.690;2023-05-10T10:05:49;99020.40;;;18.40
71081;BMP180;58740;50.672;18.690;2023-05-10T10:08:17;99006.80;;;18.30
71081;BMP180;58740;50.672;18.690;2023-05-10T10:10:46;99005.40;;;18.30
71081;BMP180;58740;50.672;18.690;2023-05-10T10:13:14;98999.40;;;18.30
71081;BMP180;58740;50.672;18.690;2023-05-10T10:15:43;98996.00;;;18.30
71081;BMP180;58740;50.672;18.690;2023-05-10T10:18:13;98997.60;;;18.40
71081;BMP180;58740;50.672;18.690;2023-05-10T10:20:42;98996.60;;;18.50
71081;BMP180;58740;50.672;18.690;2023-05-10T10:23:10;98996.00;;;18.50
71081;BMP180;58740;50.672;18.690;2023-05-10T10:25:38;98999.60;;;18.60
71081;BMP180;58740;50.672;18.690;2023-05-10T10:32:06;98996.00;;;18.60
71081;BMP180;58740;50.672;18.690;2023-05-10T10:34:35;98995.80;;;18.80
71081;BMP180;58740;50.672;18.690;2023-05-10T10:37:06;98999.00;;;18.80
71081;BMP180;58740;50.672;18.690;2023-05-10T10:39:34;98995.40;;;18.80
71081;BMP180;58740;50.672;18.690;2023-05-10T10:42:05;98994.40;;;18.80
71081;BMP180;58740;50.672;18.690;2023-05-10T10:49:48;98979.20;;;18.90
71081;BMP180;58740;50.672;18.690;2023-05-10T10:52:24;98980.20;;;19.00
71081;BMP180;58740;50.672;18.690;2023-05-10T10:55:16;98980.40;;;19.00
71081;BMP180;58740;50.672;18.690;2023-05-10T10:57:55;98980.60;;;19.00
71081;BMP180;58740;50.672;18.690;2023-05-10T11:00:36;98982.60;;;19.00
71081;BMP180;58740;50.672;18.690;2023-05-10T11:03:10;98984.00;;;18.90
71081;BMP180;58740;50.672;18.690;2023-05-10T11:05:49;98974.40;;;18.86
71081;BMP180;58740;50.672;18.690;2023-05-10T11:13:43;98981.60;;;18.50
71081;BMP180;58740;50.672;18.690;2023-05-10T11:16:19;98986.40;;;18.40
71081;BMP180;58740;50.672;18.690;2023-05-10T11:21:24;98978.20;;;18.40
71081;BMP180;58740;50.672;18.690;2023-05-10T11:23:55;98985.60;;;18.44
71081;BMP180;58740;50.672;18.690;2023-05-10T11:26:32;98984.00;;;18.42
71081;BMP180;58740;50.672;18.690;2023-05-10T11:29:01;98989.80;;;18.40
71081;BMP180;58740;50.672;18.690;2023-05-10T11:31:30;98992.00;;;18.40
71081;BMP180;58740;50.672;18.690;2023-05-10T11:34:00;98987.20;;;18.30
71081;BMP180;58740;50.672;18.690;2023-05-10T11:36:36;98981.00;;;18.30
71081;BMP180;58740;50.672;18.690;2023-05-10T11:39:05;98988.40;;;18.30
71081;BMP180;58740;50.672;18.690;2023-05-10T11:41:34;98977.80;;;18.30
71081;BMP180;58740;50.672;18.690;2023-05-10T11:44:03;98980.80;;;18.20
71081;BMP180;58740;50.672;18.690;2023-05-10T11:46:30;98976.60;;;18.20
71081;BMP180;58740;50.672;18.690;2023-05-10T11:49:02;98984.00;;;18.10
71081;BMP180;58740;50.672;18.690;2023-05-10T11:51:36;98980.80;;;18.10
71081;BMP180;58740;50.672;18.690;2023-05-10T11:54:09;98977.80;;;18.10
71081;BMP180;58740;50.672;18.690;2023-05-10T11:56:39;98977.60;;;18.10
71081;BMP180;58740;50.672;18.690;2023-05-10T11:59:08;98980.80;;;18.10
71081;BMP180;58740;50.672;18.690;2023-05-10T12:01:36;98972.80;;;18.10
71081;BMP180;58740;50.672;18.690;2023-05-10T12:04:04;98977.60;;;18.10
71081;BMP180;58740;50.672;18.690;2023-05-10T12:06:39;98970.60;;;18.10
71081;BMP180;58740;50.672;18.690;2023-05-10T12:09:08;98974.00;;;18.00
71081;BMP180;58740;50.672;18.690;2023-05-10T12:11:39;98968.60;;;18.00
71081;BMP180;58740;50.672;18.690;2023-05-10T12:14:10;98979.00;;;18.00
71081;BMP180;58740;50.672;18.690;2023-05-10T12:16:38;98972.40;;;18.00
71081;BMP180;58740;50.672;18.690;2023-05-10T12:19:06;98973.00;;;18.00
71081;BMP180;58740;50.672;18.690;2023-05-10T12:21:34;98973.20;;;18.00
71081;BMP180;58740;50.672;18.690;2023-05-10T12:24:04;98975.80;;;18.00
71081;BMP180;58740;50.672;18.690;2023-05-10T12:26:34;98982.20;;;18.20
71081;BMP180;58740;50.672;18.690;2023-05-10T12:29:16;98979.00;;;18.30
71081;BMP180;58740;50.672;18.690;2023-05-10T12:31:57;98977.60;;;18.40
71081;BMP180;58740;50.672;18.690;2023-05-10T12:34:35;98975.40;;;18.50
71081;BMP180;58740;50.672;18.690;2023-05-10T12:37:04;98971.00;;;18.50
71081;BMP180;58740;50.672;18.690;2023-05-10T12:39:43;98975.00;;;18.46
71081;BMP180;58740;50.672;18.690;2023-05-10T12:42:11;98971.20;;;18.50
71081;BMP180;58740;50.672;18.690;2023-05-10T12:44:40;98968.80;;;18.50
71081;BMP180;58740;50.672;18.690;2023-05-10T12:47:08;98969.80;;;18.50
71081;BMP180;58740;50.672;18.690;2023-05-10T12:49:37;98967.80;;;18.60
71081;BMP180;58740;50.672;18.690;2023-05-10T12:52:05;98970.60;;;18.62
71081;BMP180;58740;50.672;18.690;2023-05-10T12:54:36;98966.20;;;18.60
71081;BMP180;58740;50.672;18.690;2023-05-10T12:57:05;98957.00;;;18.60
71081;BMP180;58740;50.672;18.690;2023-05-10T12:59:35;98966.40;;;18.60
71081;BMP180;58740;50.672;18.690;2023-05-10T13:02:06;98957.40;;;18.60
71081;BMP180;58740;50.672;18.690;2023-05-10T13:04:34;98958.00;;;18.66
71081;BMP180;58740;50.672;18.690;2023-05-10T13:07:03;98957.20;;;18.60
71081;BMP180;58740;50.672;18.690;2023-05-10T13:09:30;98957.60;;;18.60
71081;BMP180;58740;50.672;18.690;2023-05-10T13:11:58;98955.20;;;18.60
71081;BMP180;58740;50.672;18.690;2023-05-10T13:14:27;98947.40;;;18.60
71081;BMP180;58740;50.672;18.690;2023-05-10T13:16:54;98951.20;;;18.60
71081;BMP180;58740;50.672;18.690;2023-05-10T13:19:24;98946.60;;;18.54
71081;BMP180;58740;50.672;18.690;2023-05-10T13:21:52;98942.60;;;18.60
71081;BMP180;58740;50.672;18.690;2023-05-10T13:24:19;98941.80;;;18.64
71081;BMP180;58740;50.672;18.690;2023-05-10T13:26:47;98939.60;;;18.70
71081;BMP180;58740;50.672;18.690;2023-05-10T13:29:16;98936.80;;;18.76
71081;BMP180;58740;50.672;18.690;2023-05-10T13:31:48;98929.20;;;18.80
71081;BMP180;58740;50.672;18.690;2023-05-10T13:34:16;98930.60;;;18.74
71081;BMP180;58740;50.672;18.690;2023-05-10T13:36:48;98935.00;;;18.70
71081;BMP180;58740;50.672;18.690;2023-05-10T13:39:16;98930.20;;;18.70
71081;BMP180;58740;50.672;18.690;2023-05-10T13:41:44;98943.40;;;18.60
71081;BMP180;58740;50.672;18.690;2023-05-10T13:44:13;98934.00;;;18.60
71081;BMP180;58740;50.672;18.690;2023-05-10T13:46:41;98943.00;;;18.60
71081;BMP180;58740;50.672;18.690;2023-05-10T13:49:12;98932.40;;;18.50
71081;BMP180;58740;50.672;18.690;2023-05-10T13:51:40;98937.00;;;18.50
71081;BMP180;58740;50.672;18.690;2023-05-10T13:54:08;98932.40;;;18.40
71081;BMP180;58740;50.672;18.690;2023-05-10T13:56:38;98925.80;;;18.40
71081;BMP180;58740;50.672;18.690;2023-05-10T13:59:06;98926.40;;;18.40
71081;BMP180;58740;50.672;18.690;2023-05-10T14:01:35;98929.60;;;18.40
71081;BMP180;58740;50.672;18.690;2023-05-10T14:04:04;98925.80;;;18.40
71081;BMP180;58740;50.672;18.690;2023-05-10T14:06:32;98923.40;;;18.40
71081;BMP180;58740;50.672;18.690;2023-05-10T14:08:59;98920.40;;;18.48
71081;BMP180;58740;50.672;18.690;2023-05-10T14:11:27;98910.80;;;18.50
71081;BMP180;58740;50.672;18.690;2023-05-10T14:13:55;98911.40;;;18.50
71081;BMP180;58740;50.672;18.690;2023-05-10T14:16:23;98904.40;;;18.60
71081;BMP180;58740;50.672;18.690;2023-05-10T14:18:51;98907.20;;;18.70
71081;BMP180;58740;50.672;18.690;2023-05-10T14:21:19;98908.00;;;18.70
71081;BMP180;58740;50.672;18.690;2023-05-10T14:23:47;98911.20;;;18.70
71081;BMP180;58740;50.672;18.690;2023-05-10T14:26:15;98903.40;;;18.70
71081;BMP180;58740;50.672;18.690;2023-05-10T14:28:42;98909.40;;;18.70
71081;BMP180;58740;50.672;18.690;2023-05-10T14:31:10;98907.00;;;18.70
71081;BMP180;58740;50.672;18.690;2023-05-10T14:33:38;98906.80;;;18.70
71081;BMP180;58740;50.672;18.690;2023-05-10T14:36:06;98909.20;;;18.70
71081;BMP180;58740;50.672;18.690;2023-05-10T14:38:34;98912.60;;;18.70
71081;BMP180;58740;50.672;18.690;2023-05-10T14:41:02;98908.40;;;18.70
71081;BMP180;58740;50.672;18.690;2023-05-10T14:43:30;98902.40;;;18.70
71081;BMP180;58740;50.672;18.690;2023-05-10T14:45:58;98898.80;;;18.68
71081;BMP180;58740;50.672;18.690;2023-05-10T14:48:26;98902.40;;;18.70